sensor_id;sensor_type;location;lat;lon;timestamp;pressure;altitude;pressure_sealevel;temperature;humidity
23118;BME280;11728;50.624;6.014;2023-01-29T00:00:39;99651.00;;;-2.68;95.47
23118;BME280;11728;50.624;6.014;2023-01-29T00:05:40;99646.41;;;-2.74;95.74
23118;BME280;11728;50.624;6.014;2023-01-29T00:10:40;99637.38;;;-2.82;95.70
23118;BME280;11728;50.624;6.014;2023-01-29T00:15:41;99645.50;;;-2.92;95.78
23118;BME280;11728;50.624;6.014;2023-01-29T00:20:42;99635.06;;;-2.93;96.03
23118;BME280;11728;50.624;6.014;2023-01-29T00:25:43;99622.88;;;-2.96;96.59
23118;BME280;11728;50.624;6.014;2023-01-29T00:30:44;99614.81;;;-3.02;96.50
23118;BME280;11728;50.624;6.014;2023-01-29T00:35:44;99618.88;;;-3.06;96.33
23118;BME280;11728;50.624;6.014;2023-01-29T00:40:45;99606.78;;;-3.07;96.00
23118;BME280;11728;50.624;6.014;2023-01-29T00:46:04;99599.53;;;-3.14;95.89
23118;BME280;11728;50.624;6.014;2023-01-29T00:51:05;99603.72;;;-3.16;96.14
23118;BME280;11728;50.624;6.014;2023-01-29T00:56:06;99594.88;;;-3.21;95.99
23118;BME280;11728;50.624;6.014;2023-01-29T01:01:06;99597.50;;;-3.20;96.08
23118;BME280;11728;50.624;6.014;2023-01-29T01:06:09;99584.38;;;-3.24;95.71
23118;BME280;11728;50.624;6.014;2023-01-29T01:11:10;99597.03;;;-3.29;95.92
23118;BME280;11728;50.624;6.014;2023-01-29T01:16:12;99584.56;;;-3.37;96.30
23118;BME280;11728;50.624;6.014;2023-01-29T01:21:13;99580.03;;;-3.41;95.68
23118;BME280;11728;50.624;6.014;2023-01-29T01:26:14;99585.84;;;-3.45;95.40
23118;BME280;11728;50.624;6.014;2023-01-29T01:31:14;99574.41;;;-3.50;96.14
23118;BME280;11728;50.624;6.014;2023-01-29T01:36:14;99587.16;;;-3.53;95.95
23118;BME280;11728;50.624;6.014;2023-01-29T01:41:19;99594.66;;;-3.58;96.23
23118;BME280;11728;50.624;6.014;2023-01-29T01:46:21;99606.69;;;-3.58;96.63
23118;BME280;11728;50.624;6.014;2023-01-29T01:51:23;99607.63;;;-3.56;96.31
23118;BME280;11728;50.624;6.014;2023-01-29T01:56:28;99598.75;;;-3.61;96.13
23118;BME280;11728;50.624;6.014;2023-01-29T02:01:40;99592.31;;;-3.69;95.72
23118;BME280;11728;50.624;6.014;2023-01-29T02:06:42;99573.28;;;-3.71;96.32
23118;BME280;11728;50.624;6.014;2023-01-29T02:12:04;99572.34;;;-3.73;96.09
23118;BME280;11728;50.624;6.014;2023-01-29T02:17:07;99575.41;;;-3.80;96.38
23118;BME280;11728;50.624;6.014;2023-01-29T02:33:20;99588.91;;;-4.00;97.02
23118;BME280;11728;50.624;6.014;2023-01-29T02:43:46;99586.19;;;-4.03;96.53
23118;BME280;11728;50.624;6.014;2023-01-29T02:49:00;99575.06;;;-4.02;96.69
23118;BME280;11728;50.624;6.014;2023-01-29T02:54:38;99592.59;;;-4.11;96.00
23118;BME280;11728;50.624;6.014;2023-01-29T02:59:47;99610.47;;;-4.14;96.33
23118;BME280;11728;50.624;6.014;2023-01-29T03:04:53;99620.00;;;-4.13;96.39
23118;BME280;11728;50.624;6.014;2023-01-29T03:09:58;99643.84;;;-4.17;96.41
23118;BME280;11728;50.624;6.014;2023-01-29T03:15:17;99638.84;;;-4.14;96.36
23118;BME280;11728;50.624;6.014;2023-01-29T03:20:45;99641.47;;;-4.12;96.15
23118;BME280;11728;50.624;6.014;2023-01-29T03:25:52;99638.69;;;-4.17;95.60
23118;BME280;11728;50.624;6.014;2023-01-29T03:31:13;99640.75;;;-4.26;95.50
23118;BME280;11728;50.624;6.014;2023-01-29T03:36:41;99640.22;;;-4.35;95.74
23118;BME280;11728;50.624;6.014;2023-01-29T03:42:20;99625.38;;;-4.39;95.61
23118;BME280;11728;50.624;6.014;2023-01-29T03:53:06;99620.06;;;-4.42;95.80
23118;BME280;11728;50.624;6.014;2023-01-29T03:58:33;99616.19;;;-4.50;96.10
23118;BME280;11728;50.624;6.014;2023-01-29T04:03:42;99616.19;;;-4.50;96.38
23118;BME280;11728;50.624;6.014;2023-01-29T04:13:45;99614.25;;;-4.54;96.70
23118;BME280;11728;50.624;6.014;2023-01-29T04:18:50;99618.41;;;-4.56;96.83
23118;BME280;11728;50.624;6.014;2023-01-29T04:23:58;99606.41;;;-4.55;96.85
23118;BME280;11728;50.624;6.014;2023-01-29T04:35:00;99593.78;;;-4.51;95.76
23118;BME280;11728;50.624;6.014;2023-01-29T04:45:51;99569.00;;;-4.49;95.51
23118;BME280;11728;50.624;6.014;2023-01-29T04:51:07;99569.47;;;-4.56;95.21
23118;BME280;11728;50.624;6.014;2023-01-29T04:56:21;99574.09;;;-4.64;96.20
23118;BME280;11728;50.624;6.014;2023-01-29T05:01:26;99550.59;;;-4.70;96.43
23118;BME280;11728;50.624;6.014;2023-01-29T05:06:30;99552.44;;;-4.68;96.38
23118;BME280;11728;50.624;6.014;2023-01-29T05:11:32;99557.66;;;-4.66;96.13
23118;BME280;11728;50.624;6.014;2023-01-29T05:16:39;99559.97;;;-4.71;96.05
23118;BME280;11728;50.624;6.014;2023-01-29T05:21:47;99535.66;;;-4.76;96.21
23118;BME280;11728;50.624;6.014;2023-01-29T05:26:50;99551.19;;;-4.74;95.92
23118;BME280;11728;50.624;6.014;2023-01-29T05:32:09;99546.03;;;-4.74;95.70
23118;BME280;11728;50.624;6.014;2023-01-29T05:37:10;99570.94;;;-4.75;96.15
23118;BME280;11728;50.624;6.014;2023-01-29T05:42:10;99560.44;;;-4.78;95.69
23118;BME280;11728;50.624;6.014;2023-01-29T05:47:11;99564.00;;;-4.76;95.90
23118;BME280;11728;50.624;6.014;2023-01-29T05:52:11;99571.91;;;-4.73;95.33
23118;BME280;11728;50.624;6.014;2023-01-29T05:57:13;99575.34;;;-4.72;95.45
23118;BME280;11728;50.624;6.014;2023-01-29T06:02:14;99571.25;;;-4.69;95.20
23118;BME280;11728;50.624;6.014;2023-01-29T06:07:14;99568.16;;;-4.63;95.10
23118;BME280;11728;50.624;6.014;2023-01-29T06:12:14;99559.69;;;-4.61;94.58
23118;BME280;11728;50.624;6.014;2023-01-29T06:17:15;99558.97;;;-4.58;94.95
23118;BME280;11728;50.624;6.014;2023-01-29T06:22:15;99553.69;;;-4.61;94.49
23118;BME280;11728;50.624;6.014;2023-01-29T06:27:16;99544.06;;;-4.64;95.00
23118;BME280;11728;50.624;6.014;2023-01-29T06:32:16;99523.56;;;-4.62;94.67
23118;BME280;11728;50.624;6.014;2023-01-29T06:37:18;99532.09;;;-4.63;95.09
23118;BME280;11728;50.624;6.014;2023-01-29T06:42:18;99538.03;;;-4.64;94.84
23118;BME280;11728;50.624;6.014;2023-01-29T06:47:19;99552.06;;;-4.59;95.43
23118;BME280;11728;50.624;6.014;2023-01-29T06:52:20;99594.59;;;-4.52;95.79
23118;BME280;11728;50.624;6.014;2023-01-29T06:57:21;99601.94;;;-4.13;95.95
23118;BME280;11728;50.624;6.014;2023-01-29T07:02:21;99616.66;;;-3.80;95.05
23118;BME280;11728;50.624;6.014;2023-01-29T07:07:22;99625.06;;;-3.52;94.74
23118;BME280;11728;50.624;6.014;2023-01-29T07:12:22;99616.41;;;-3.37;95.22
23118;BME280;11728;50.624;6.014;2023-01-29T07:17:23;99610.34;;;-3.21;94.54
23118;BME280;11728;50.624;6.014;2023-01-29T07:22:23;99607.59;;;-3.24;94.52
23118;BME280;11728;50.624;6.014;2023-01-29T07:27:24;99598.56;;;-3.16;94.32
23118;BME280;11728;50.624;6.014;2023-01-29T07:32:25;99586.41;;;-3.02;94.89
23118;BME280;11728;50.624;6.014;2023-01-29T07:37:27;99575.06;;;-2.88;93.54
23118;BME280;11728;50.624;6.014;2023-01-29T07:42:27;99558.25;;;-2.80;93.38
23118;BME280;11728;50.624;6.014;2023-01-29T07:47:28;99564.91;;;-2.67;93.61
23118;BME280;11728;50.624;6.014;2023-01-29T07:52:30;99564.16;;;-2.47;93.70
23118;BME280;11728;50.624;6.014;2023-01-29T07:57:30;99573.72;;;-2.28;93.85
23118;BME280;11728;50.624;6.014;2023-01-29T08:02:31;99562.91;;;-2.02;94.20
23118;BME280;11728;50.624;6.014;2023-01-29T08:07:31;99559.47;;;-1.83;93.62
23118;BME280;11728;50.624;6.014;2023-01-29T08:12:32;99592.56;;;-1.76;93.32
23118;BME280;11728;50.624;6.014;2023-01-29T08:17:32;99591.69;;;-1.58;93.49
23118;BME280;11728;50.624;6.014;2023-01-29T08:22:33;99589.31;;;-1.53;94.43
23118;BME280;11728;50.624;6.014;2023-01-29T08:27:33;99596.03;;;-1.38;93.07
23118;BME280;11728;50.624;6.014;2023-01-29T08:32:34;99585.88;;;-1.34;92.79
23118;BME280;11728;50.624;6.014;2023-01-29T08:37:34;99587.91;;;-1.27;93.34
23118;BME280;11728;50.624;6.014;2023-01-29T08:42:35;99586.81;;;-1.13;93.20
23118;BME280;11728;50.624;6.014;2023-01-29T08:47:35;99572.81;;;-0.97;92.52
23118;BME280;11728;50.624;6.014;2023-01-29T08:52:36;99577.28;;;-0.93;92.89
23118;BME280;11728;50.624;6.014;2023-01-29T08:57:37;99586.16;;;-0.68;93.08
23118;BME280;11728;50.624;6.014;2023-01-29T09:02:37;99569.00;;;-0.44;92.81
23118;BME280;11728;50.624;6.014;2023-01-29T09:07:38;99583.63;;;-0.24;92.34
23118;BME280;11728;50.624;6.014;2023-01-29T09:12:38;99565.25;;;-0.08;92.22
23118;BME280;11728;50.624;6.014;2023-01-29T09:17:39;99575.41;;;0.07;91.76
23118;BME280;11728;50.624;6.014;2023-01-29T09:22:41;99561.13;;;0.18;91.92
23118;BME280;11728;50.624;6.014;2023-01-29T09:27:41;99567.13;;;0.39;91.24
23118;BME280;11728;50.624;6.014;2023-01-29T09:32:42;99558.16;;;0.55;91.48
23118;BME280;11728;50.624;6.014;2023-01-29T09:37:46;99550.66;;;0.62;91.15
23118;BME280;11728;50.624;6.014;2023-01-29T09:42:58;99532.38;;;0.84;90.91
23118;BME280;11728;50.624;6.014;2023-01-29T09:48:02;99541.09;;;1.09;90.55
23118;BME280;11728;50.624;6.014;2023-01-29T09:58:34;99529.97;;;1.15;90.19
23118;BME280;11728;50.624;6.014;2023-01-29T10:24:37;99502.69;;;2.40;88.39
23118;BME280;11728;50.624;6.014;2023-01-29T10:29:41;99496.41;;;2.95;87.26
23118;BME280;11728;50.624;6.014;2023-01-29T10:34:49;99484.75;;;3.49;86.43
23118;BME280;11728;50.624;6.014;2023-01-29T10:39:51;99483.44;;;3.67;84.59
23118;BME280;11728;50.624;6.014;2023-01-29T10:44:55;99476.63;;;3.72;83.82
23118;BME280;11728;50.624;6.014;2023-01-29T10:50:24;99474.84;;;3.71;83.44
23118;BME280;11728;50.624;6.014;2023-01-29T10:55:40;99442.75;;;4.15;83.16
23118;BME280;11728;50.624;6.014;2023-01-29T11:00:42;99432.78;;;5.36;80.66
23118;BME280;11728;50.624;6.014;2023-01-29T11:06:18;99433.31;;;5.72;78.90
23118;BME280;11728;50.624;6.014;2023-01-29T11:11:18;99426.69;;;5.38;78.39
23118;BME280;11728;50.624;6.014;2023-01-29T11:16:21;99428.84;;;5.09;79.05
23118;BME280;11728;50.624;6.014;2023-01-29T11:21:23;99411.50;;;5.17;77.83
23118;BME280;11728;50.624;6.014;2023-01-29T11:26:24;99413.19;;;5.66;76.95
23118;BME280;11728;50.624;6.014;2023-01-29T11:31:26;99405.56;;;5.83;74.64
23118;BME280;11728;50.624;6.014;2023-01-29T11:36:36;99412.66;;;5.88;74.87
23118;BME280;11728;50.624;6.014;2023-01-29T11:42:03;99406.03;;;5.55;75.07
23118;BME280;11728;50.624;6.014;2023-01-29T11:52:21;99409.69;;;5.11;76.59
23118;BME280;11728;50.624;6.014;2023-01-29T11:57:26;99398.91;;;4.93;75.82
23118;BME280;11728;50.624;6.014;2023-01-29T12:02:32;99395.19;;;4.81;76.20
23118;BME280;11728;50.624;6.014;2023-01-29T12:07:40;99387.22;;;4.73;75.94
23118;BME280;11728;50.624;6.014;2023-01-29T12:12:41;99377.44;;;4.63;76.21
23118;BME280;11728;50.624;6.014;2023-01-29T12:17:46;99375.59;;;4.58;76.26
23118;BME280;11728;50.624;6.014;2023-01-29T12:28:27;99352.88;;;4.54;75.92
23118;BME280;11728;50.624;6.014;2023-01-29T12:33:48;99326.91;;;4.64;76.18
23118;BME280;11728;50.624;6.014;2023-01-29T12:38:50;99294.91;;;4.80;75.86
23118;BME280;11728;50.624;6.014;2023-01-29T12:43:58;99285.28;;;5.38;75.56
23118;BME280;11728;50.624;6.014;2023-01-29T12:49:07;99262.53;;;6.03;73.34
23118;BME280;11728;50.624;6.014;2023-01-29T12:54:17;99254.19;;;6.42;72.95
23118;BME280;11728;50.624;6.014;2023-01-29T12:59:34;99246.22;;;6.33;70.24
23118;BME280;11728;50.624;6.014;2023-01-29T13:04:40;99246.78;;;6.00;70.66
23118;BME280;11728;50.624;6.014;2023-01-29T13:09:46;99240.47;;;5.84;70.54
23118;BME280;11728;50.624;6.014;2023-01-29T13:15:04;99232.28;;;5.56;69.98
23118;BME280;11728;50.624;6.014;2023-01-29T13:20:17;99234.53;;;5.29;70.83
23118;BME280;11728;50.624;6.014;2023-01-29T13:25:20;99233.28;;;5.00;71.19
23118;BME280;11728;50.624;6.014;2023-01-29T13:30:31;99234.88;;;4.89;72.04
23118;BME280;11728;50.624;6.014;2023-01-29T13:35:38;99216.97;;;4.58;72.20
23118;BME280;11728;50.624;6.014;2023-01-29T13:40:38;99216.63;;;4.38;72.97
23118;BME280;11728;50.624;6.014;2023-01-29T13:45:43;99208.88;;;4.42;73.59
23118;BME280;11728;50.624;6.014;2023-01-29T13:50:45;99189.56;;;4.36;73.88
23118;BME280;11728;50.624;6.014;2023-01-29T13:55:46;99194.66;;;4.28;73.50
23118;BME280;11728;50.624;6.014;2023-01-29T14:00:47;99185.81;;;4.19;73.79
23118;BME280;11728;50.624;6.014;2023-01-29T14:21:23;99182.00;;;4.00;74.42
23118;BME280;11728;50.624;6.014;2023-01-29T14:26:39;99175.84;;;3.97;74.68
23118;BME280;11728;50.624;6.014;2023-01-29T14:37:02;99190.13;;;3.68;75.53
23118;BME280;11728;50.624;6.014;2023-01-29T14:42:35;99195.69;;;3.40;76.08
23118;BME280;11728;50.624;6.014;2023-01-29T14:52:43;99197.97;;;3.24;77.10
23118;BME280;11728;50.624;6.014;2023-01-29T14:57:47;99202.25;;;3.20;76.84
23118;BME280;11728;50.624;6.014;2023-01-29T15:02:50;99193.56;;;3.21;76.72
23118;BME280;11728;50.624;6.014;2023-01-29T15:08:03;99201.31;;;3.17;77.12
23118;BME280;11728;50.624;6.014;2023-01-29T15:13:18;99199.38;;;3.08;77.72
23118;BME280;11728;50.624;6.014;2023-01-29T15:23:31;99208.56;;;2.92;78.96
23118;BME280;11728;50.624;6.014;2023-01-29T15:28:34;99218.94;;;2.87;78.71
23118;BME280;11728;50.624;6.014;2023-01-29T15:33:35;99215.38;;;2.84;79.24
23118;BME280;11728;50.624;6.014;2023-01-29T15:38:37;99222.94;;;2.73;79.76
23118;BME280;11728;50.624;6.014;2023-01-29T15:43:42;99210.75;;;2.72;80.03
23118;BME280;11728;50.624;6.014;2023-01-29T15:48:44;99198.34;;;2.61;80.72
23118;BME280;11728;50.624;6.014;2023-01-29T15:53:50;99211.16;;;2.52;82.05
23118;BME280;11728;50.624;6.014;2023-01-29T15:58:52;99204.03;;;2.45;82.05
23118;BME280;11728;50.624;6.014;2023-01-29T16:03:55;99194.53;;;2.47;82.27
23118;BME280;11728;50.624;6.014;2023-01-29T16:08:56;99179.53;;;2.37;82.37
23118;BME280;11728;50.624;6.014;2023-01-29T16:13:58;99171.56;;;2.31;82.94
23118;BME280;11728;50.624;6.014;2023-01-29T16:19:00;99167.25;;;2.33;83.16
23118;BME280;11728;50.624;6.014;2023-01-29T16:24:04;99164.72;;;2.34;82.88
23118;BME280;11728;50.624;6.014;2023-01-29T16:29:12;99167.41;;;2.39;82.86
23118;BME280;11728;50.624;6.014;2023-01-29T16:34:28;99167.41;;;2.39;82.60
23118;BME280;11728;50.624;6.014;2023-01-29T16:39:33;99169.94;;;2.36;82.73
23118;BME280;11728;50.624;6.014;2023-01-29T16:50:28;99160.34;;;2.35;82.68
23118;BME280;11728;50.624;6.014;2023-01-29T16:55:38;99166.13;;;2.22;83.28
23118;BME280;11728;50.624;6.014;2023-01-29T17:00:43;99164.22;;;2.15;83.38
23118;BME280;11728;50.624;6.014;2023-01-29T17:05:45;99152.88;;;2.13;83.57
23118;BME280;11728;50.624;6.014;2023-01-29T17:10:47;99152.91;;;2.15;84.22
23118;BME280;11728;50.624;6.014;2023-01-29T17:15:47;99156.31;;;2.11;83.86
23118;BME280;11728;50.624;6.014;2023-01-29T17:20:49;99149.34;;;2.11;84.38
23118;BME280;11728;50.624;6.014;2023-01-29T17:25:50;99156.28;;;2.09;84.82
23118;BME280;11728;50.624;6.014;2023-01-29T17:30:51;99160.59;;;2.09;85.97
23118;BME280;11728;50.624;6.014;2023-01-29T17:35:51;99149.34;;;2.10;85.52
23118;BME280;11728;50.624;6.014;2023-01-29T17:40:59;99136.28;;;2.08;85.62
23118;BME280;11728;50.624;6.014;2023-01-29T17:46:01;99151.91;;;2.08;86.47
23118;BME280;11728;50.624;6.014;2023-01-29T17:51:02;99148.41;;;2.08;87.23
23118;BME280;11728;50.624;6.014;2023-01-29T17:56:04;99146.59;;;2.04;87.76
23118;BME280;11728;50.624;6.014;2023-01-29T18:01:04;99140.44;;;2.00;88.71
23118;BME280;11728;50.624;6.014;2023-01-29T18:06:06;99133.53;;;2.02;88.77
23118;BME280;11728;50.624;6.014;2023-01-29T18:11:10;99126.72;;;2.07;89.36
23118;BME280;11728;50.624;6.014;2023-01-29T18:16:11;99123.25;;;2.08;90.25
23118;BME280;11728;50.624;6.014;2023-01-29T18:21:12;99119.81;;;2.09;90.56
23118;BME280;11728;50.624;6.014;2023-01-29T18:26:15;99121.53;;;2.10;91.13
23118;BME280;11728;50.624;6.014;2023-01-29T18:31:16;99110.47;;;2.19;91.27
23118;BME280;11728;50.624;6.014;2023-01-29T18:36:17;99101.94;;;2.24;91.40
23118;BME280;11728;50.624;6.014;2023-01-29T18:41:17;99099.47;;;2.30;91.18
23118;BME280;11728;50.624;6.014;2023-01-29T18:46:18;99091.63;;;2.28;91.44
23118;BME280;11728;50.624;6.014;2023-01-29T18:51:19;99084.75;;;2.32;91.72
23118;BME280;11728;50.624;6.014;2023-01-29T18:56:19;99064.78;;;2.34;92.26
23118;BME280;11728;50.624;6.014;2023-01-29T19:01:20;99050.94;;;2.35;92.12
23118;BME280;11728;50.624;6.014;2023-01-29T19:06:20;99051.81;;;2.35;92.23
23118;BME280;11728;50.624;6.014;2023-01-29T19:11:21;99039.53;;;2.30;92.96
23118;BME280;11728;50.624;6.014;2023-01-29T19:16:21;99033.50;;;2.31;92.58
23118;BME280;11728;50.624;6.014;2023-01-29T19:21:22;99020.50;;;2.34;93.39
23118;BME280;11728;50.624;6.014;2023-01-29T19:26:23;99024.88;;;2.35;93.78
23118;BME280;11728;50.624;6.014;2023-01-29T19:31:24;99021.28;;;2.28;94.13
23118;BME280;11728;50.624;6.014;2023-01-29T19:36:25;99024.88;;;2.35;93.98
23118;BME280;11728;50.624;6.014;2023-01-29T19:41:25;99027.38;;;2.30;94.93
23118;BME280;11728;50.624;6.014;2023-01-29T19:46:26;99026.56;;;2.33;95.14
23118;BME280;11728;50.624;6.014;2023-01-29T19:51:26;99017.06;;;2.35;95.82
23118;BME280;11728;50.624;6.014;2023-01-29T19:56:27;99005.59;;;2.27;97.09
23118;BME280;11728;50.624;6.014;2023-01-29T20:01:28;98997.78;;;2.27;97.58
23118;BME280;11728;50.624;6.014;2023-01-29T20:06:29;98976.09;;;2.28;98.77
23118;BME280;11728;50.624;6.014;2023-01-29T20:11:32;98979.53;;;2.27;99.17
23118;BME280;11728;50.624;6.014;2023-01-29T20:16:32;98984.84;;;2.30;99.22
23118;BME280;11728;50.624;6.014;2023-01-29T20:21:33;98977.06;;;2.33;99.66
23118;BME280;11728;50.624;6.014;2023-01-29T20:26:33;98958.97;;;2.39;99.41
23118;BME280;11728;50.624;6.014;2023-01-29T20:31:34;98960.69;;;2.40;100.00
23118;BME280;11728;50.624;6.014;2023-01-29T20:36:34;98948.66;;;2.45;100.00
23118;BME280;11728;50.624;6.014;2023-01-29T20:41:34;98925.25;;;2.48;100.00
23118;BME280;11728;50.624;6.014;2023-01-29T20:46:36;98920.94;;;2.50;100.00
23118;BME280;11728;50.624;6.014;2023-01-29T20:51:37;98918.34;;;2.50;100.00
23118;BME280;11728;50.624;6.014;2023-01-29T20:56:38;98901.00;;;2.52;100.00
23118;BME280;11728;50.624;6.014;2023-01-29T21:01:41;98895.91;;;2.58;100.00
23118;BME280;11728;50.624;6.014;2023-01-29T21:06:41;98886.44;;;2.63;100.00
23118;BME280;11728;50.624;6.014;2023-01-29T21:11:41;98900.44;;;2.68;100.00
23118;BME280;11728;50.624;6.014;2023-01-29T21:16:44;98892.72;;;2.72;100.00
23118;BME280;11728;50.624;6.014;2023-01-29T21:21:44;98902.31;;;2.75;100.00
23118;BME280;11728;50.624;6.014;2023-01-29T21:26:45;98900.63;;;2.80;100.00
23118;BME280;11728;50.624;6.014;2023-01-29T21:31:46;98881.63;;;2.87;100.00
23118;BME280;11728;50.624;6.014;2023-01-29T21:36:46;98896.34;;;2.82;100.00
23118;BME280;11728;50.624;6.014;2023-01-29T21:41:48;98886.75;;;2.81;100.00
23118;BME280;11728;50.624;6.014;2023-01-29T21:47:08;98878.00;;;2.76;100.00
23118;BME280;11728;50.624;6.014;2023-01-29T21:52:11;98862.38;;;2.79;100.00
23118;BME280;11728;50.624;6.014;2023-01-29T21:57:12;98875.44;;;2.80;100.00
23118;BME280;11728;50.624;6.014;2023-01-29T22:02:14;98882.41;;;2.81;100.00
23118;BME280;11728;50.624;6.014;2023-01-29T22:07:15;98869.41;;;2.83;100.00
23118;BME280;11728;50.624;6.014;2023-01-29T22:12:15;98894.66;;;2.85;100.00
23118;BME280;11728;50.624;6.014;2023-01-29T22:17:15;98910.28;;;2.84;100.00
23118;BME280;11728;50.624;6.014;2023-01-29T22:22:16;98918.91;;;2.81;100.00
23118;BME280;11728;50.624;6.014;2023-01-29T22:27:17;98918.03;;;2.81;100.00
23118;BME280;11728;50.624;6.014;2023-01-29T22:32:18;98919.75;;;2.79;100.00
23118;BME280;11728;50.624;6.014;2023-01-29T22:37:18;98919.81;;;2.82;100.00
23118;BME280;11728;50.624;6.014;2023-01-29T22:42:19;98892.97;;;2.87;100.00
23118;BME280;11728;50.624;6.014;2023-01-29T22:47:19;98887.78;;;2.90;100.00
23118;BME280;11728;50.624;6.014;2023-01-29T22:52:20;98899.09;;;2.91;100.00
23118;BME280;11728;50.624;6.014;2023-01-29T22:57:21;98891.28;;;2.92;100.00
23118;BME280;11728;50.624;6.014;2023-01-29T23:02:21;98877.50;;;2.98;100.00
23118;BME280;11728;50.624;6.014;2023-01-29T23:07:22;98871.44;;;3.02;100.00
23118;BME280;11728;50.624;6.014;2023-01-29T23:12:22;98841.94;;;3.04;100.00
23118;BME280;11728;50.624;6.014;2023-01-29T23:17:23;98842.00;;;3.08;100.00
23118;BME280;11728;50.624;6.014;2023-01-29T23:22:23;98818.59;;;3.13;100.00
23118;BME280;11728;50.624;6.014;2023-01-29T23:27:24;98797.72;;;3.13;100.00
23118;BME280;11728;50.624;6.014;2023-01-29T23:32:24;98787.22;;;3.08;100.00
23118;BME280;11728;50.624;6.014;2023-01-29T23:37:25;98816.81;;;3.09;100.00
23118;BME280;11728;50.624;6.014;2023-01-29T23:42:25;98818.44;;;3.04;100.00
23118;BME280;11728;50.624;6.014;2023-01-29T23:47:26;98792.38;;;3.04;100.00
23118;BME280;11728;50.624;6.014;2023-01-29T23:52:26;98794.09;;;3.02;100.00
23118;BME280;11728;50.624;6.014;2023-01-29T23:57:27;98815.91;;;3.08;100.00
